createdAt,value
2018-12-05T00:01:41.187Z,18.00
2018-12-05T00:04:12.001Z,17.80
2018-12-05T00:06:40.606Z,17.67
2018-12-05T00:09:14.295Z,17.77
2018-12-05T00:14:16.087Z,23.63
2018-12-05T00:16:47.279Z,24.40
2018-12-05T00:19:20.813Z,26.57
2018-12-05T00:21:54.181Z,25.03
2018-12-05T00:27:29.503Z,26.17
2018-12-05T00:30:00.202Z,25.47
2018-12-05T00:32:31.006Z,26.83
2018-12-05T00:35:04.415Z,27.63
2018-12-05T00:37:33.395Z,27.13
2018-12-05T00:40:19.771Z,27.37
2018-12-05T00:42:49.119Z,27.13
2018-12-05T00:45:19.758Z,26.00
2018-12-05T00:47:52.910Z,28.93
2018-12-05T00:50:26.267Z,29.27
2018-12-05T00:52:59.579Z,28.00
2018-12-05T00:58:35.520Z,26.60
2018-12-05T01:01:08.736Z,26.17
2018-12-05T01:03:46.833Z,25.73
2018-12-05T01:06:22.011Z,26.03
2018-12-05T01:09:02.017Z,26.20
2018-12-05T01:17:02.111Z,23.60
2018-12-05T01:25:07.059Z,24.23
2018-12-05T01:27:40.424Z,27.10
2018-12-05T01:30:09.313Z,29.97
2018-12-05T01:32:42.722Z,24.37
2018-12-05T01:35:14.406Z,28.97
2018-12-05T01:37:47.848Z,27.70
2018-12-05T01:40:16.639Z,28.33
2018-12-05T01:42:47.209Z,27.73
2018-12-05T01:45:18.638Z,28.30
2018-12-05T01:47:49.996Z,26.17
2018-12-05T01:50:20.636Z,26.57
2018-12-05T01:55:44.939Z,26.53
2018-12-05T01:58:15.908Z,25.27
2018-12-05T02:00:49.017Z,27.97
2018-12-05T02:03:19.679Z,28.20
2018-12-05T02:05:50.410Z,30.27
2018-12-05T02:08:23.873Z,29.67
2018-12-05T02:10:57.295Z,24.17
2018-12-05T02:13:28.059Z,27.10
2018-12-05T02:15:58.620Z,26.13
2018-12-05T02:18:29.401Z,26.53
2018-12-05T02:21:00.248Z,26.57
2018-12-05T02:31:10.811Z,21.87
2018-12-05T02:33:41.575Z,20.83
2018-12-05T02:36:12.242Z,19.03
2018-12-05T02:38:45.738Z,20.27
2018-12-05T02:41:19.079Z,20.20
2018-12-05T02:43:52.670Z,18.13
2018-12-05T02:46:26.008Z,18.90
2018-12-05T02:48:56.669Z,18.40
2018-12-05T02:51:30.014Z,20.50
2018-12-05T02:54:00.737Z,21.50
2018-12-05T02:56:29.263Z,24.20
2018-12-05T02:59:00.020Z,23.25
2018-12-05T03:01:30.763Z,25.07
2018-12-05T03:07:03.299Z,21.10
2018-12-05T03:09:38.637Z,18.43
2018-12-05T03:12:09.311Z,16.03
2018-12-05T03:14:44.113Z,16.13
2018-12-05T03:17:17.924Z,14.30
2018-12-05T03:19:51.651Z,13.97
2018-12-05T03:22:24.884Z,13.17
2018-12-05T03:24:55.864Z,12.43
2018-12-05T03:27:26.561Z,13.37
2018-12-05T03:29:59.716Z,12.97
2018-12-05T03:32:30.452Z,15.23
2018-12-05T03:35:03.862Z,16.67
2018-12-05T03:40:05.166Z,14.80
2018-12-05T03:42:36.656Z,15.97
2018-12-05T03:45:07.745Z,16.47
2018-12-05T03:47:38.346Z,23.20
2018-12-05T03:50:11.861Z,96.47
2018-12-05T03:52:42.403Z,40.30
2018-12-05T03:55:15.748Z,35.00
2018-12-05T03:57:47.087Z,25.17
2018-12-05T04:00:18.410Z,21.37
2018-12-05T04:02:49.018Z,22.73
2018-12-05T04:05:20.316Z,22.40
2018-12-05T04:07:51.721Z,22.67
2018-12-05T04:10:22.457Z,21.33
2018-12-05T04:12:56.021Z,21.47
2018-12-05T04:15:24.793Z,21.47
2018-12-05T04:17:57.944Z,21.70
2018-12-05T04:20:28.800Z,21.30
2018-12-05T04:23:01.925Z,23.17
2018-12-05T04:25:35.536Z,22.93
2018-12-05T04:28:09.232Z,22.73
2018-12-05T04:30:40.277Z,22.43
2018-12-05T04:33:14.219Z,21.13
2018-12-05T04:35:49.668Z,16.87
2018-12-05T04:38:17.983Z,14.80
2018-12-05T04:40:58.579Z,15.80
2018-12-05T04:43:31.741Z,15.30
2018-12-05T04:46:02.611Z,15.60
2018-12-05T04:48:33.654Z,15.13
2018-12-05T04:51:04.988Z,14.40
2018-12-05T04:53:35.714Z,12.97
2018-12-05T04:56:06.959Z,14.07
2018-12-05T04:58:37.435Z,13.07
2018-12-05T05:01:10.882Z,13.80
2018-12-05T05:03:44.748Z,13.23
2018-12-05T05:06:28.568Z,14.90
2018-12-05T05:08:59.647Z,14.20
2018-12-05T05:11:33.066Z,12.10
2018-12-05T05:14:06.527Z,12.50
2018-12-05T05:16:37.096Z,12.97
2018-12-05T05:19:10.689Z,12.53
2018-12-05T05:21:44.129Z,13.73
2018-12-05T05:24:13.808Z,25.23
2018-12-05T05:26:44.957Z,14.97
2018-12-05T05:29:15.993Z,15.93
2018-12-05T05:32:02.409Z,17.43
2018-12-05T05:37:29.360Z,18.00
2018-12-05T05:40:02.551Z,18.77
2018-12-05T05:42:31.343Z,18.20
2018-12-05T05:45:04.995Z,18.37
2018-12-05T05:47:35.775Z,16.83
2018-12-05T05:50:08.715Z,16.93
2018-12-05T05:52:41.848Z,16.63
2018-12-05T05:55:15.547Z,17.10
2018-12-05T05:57:46.855Z,18.17
2018-12-05T06:00:20.399Z,17.13
2018-12-05T06:02:54.427Z,18.17
2018-12-05T06:05:35.904Z,17.67
2018-12-05T06:08:10.429Z,17.67
2018-12-05T06:10:44.970Z,18.93
2018-12-05T06:16:14.759Z,16.97
2018-12-05T06:18:43.644Z,17.73
2018-12-05T06:21:17.268Z,17.20
2018-12-05T06:23:48.031Z,18.90
2018-12-05T06:26:21.200Z,17.90
2018-12-05T06:28:52.218Z,18.67
2018-12-05T06:31:25.751Z,14.27
2018-12-05T06:33:56.542Z,15.57
2018-12-05T06:36:29.787Z,14.67
2018-12-05T06:41:56.489Z,12.50
2018-12-05T06:44:26.874Z,13.30
2018-12-05T06:46:57.784Z,13.70
2018-12-05T06:49:27.000Z,12.27
2018-12-05T06:52:00.322Z,13.47
2018-12-05T06:54:31.184Z,16.03
2018-12-05T06:57:01.978Z,15.90
2018-12-05T06:59:32.716Z,13.43
2018-12-05T07:02:03.107Z,14.20
2018-12-05T07:04:33.761Z,17.00
2018-12-05T07:07:04.408Z,15.30
2018-12-05T07:09:38.659Z,15.10
2018-12-05T07:12:07.612Z,14.73
2018-12-05T07:14:41.035Z,12.97
2018-12-05T07:17:15.322Z,13.10
2018-12-05T07:19:49.158Z,12.67
2018-12-05T07:22:29.284Z,13.23
2018-12-05T07:24:58.547Z,12.97
2018-12-05T07:27:32.036Z,12.63
2018-12-05T07:30:02.965Z,13.00
2018-12-05T07:32:32.288Z,12.47
2018-12-05T07:35:02.688Z,11.60
2018-12-05T07:37:36.928Z,13.33
2018-12-05T07:40:17.234Z,13.97
2018-12-05T07:42:47.902Z,12.73
2018-12-05T07:48:19.888Z,14.37
2018-12-05T07:50:49.288Z,14.73
2018-12-05T07:55:54.023Z,12.83
2018-12-05T07:58:25.211Z,14.87
2018-12-05T08:00:59.023Z,13.80
2018-12-05T08:03:29.699Z,13.70
2018-12-05T08:06:03.087Z,14.13
2018-12-05T08:08:33.869Z,15.77
2018-12-05T08:11:02.294Z,14.57
2018-12-05T08:13:32.951Z,17.37
2018-12-05T08:16:03.750Z,17.37
2018-12-05T08:18:50.397Z,16.13
2018-12-05T08:24:20.759Z,17.53
2018-12-05T08:26:58.370Z,20.60
2018-12-05T08:29:33.390Z,18.27
2018-12-05T08:32:02.084Z,17.47
2018-12-05T08:34:35.366Z,16.75
2018-12-05T08:37:08.717Z,12.60
2018-12-05T08:39:39.404Z,12.43
2018-12-05T08:42:13.252Z,12.77
2018-12-05T08:47:35.107Z,11.20
2018-12-05T08:50:18.968Z,11.35
2018-12-05T08:52:54.896Z,11.37
2018-12-05T08:55:28.535Z,13.63
2018-12-05T08:58:02.009Z,12.83
2018-12-05T09:00:32.628Z,14.43
2018-12-05T09:03:06.260Z,13.47
2018-12-05T09:05:39.531Z,14.23
2018-12-05T09:08:15.175Z,15.47
2018-12-05T09:10:49.711Z,16.30
2018-12-05T09:13:24.965Z,15.67
2018-12-05T09:15:56.213Z,15.23
2018-12-05T09:18:30.717Z,14.10
2018-12-05T09:21:04.577Z,13.27
2018-12-05T09:23:35.154Z,15.00
2018-12-05T09:26:05.923Z,16.77
2018-12-05T09:28:36.565Z,17.00
2018-12-05T09:31:10.618Z,16.07
2018-12-05T09:33:46.031Z,17.97
2018-12-05T09:36:23.525Z,17.80
2018-12-05T09:41:54.449Z,17.93
2018-12-05T09:44:25.237Z,17.87
2018-12-05T09:47:02.449Z,17.20
2018-12-05T09:49:36.111Z,18.40
2018-12-05T09:52:09.763Z,19.67
2018-12-05T09:54:43.630Z,21.00
2018-12-05T09:57:16.891Z,20.97
2018-12-05T09:59:54.368Z,23.37
2018-12-05T10:02:23.163Z,21.90
2018-12-05T10:04:54.351Z,21.87
2018-12-05T10:07:25.535Z,22.50
2018-12-05T10:09:58.661Z,21.00
2018-12-05T10:12:32.938Z,20.07
2018-12-05T10:15:06.599Z,18.60
2018-12-05T10:17:37.163Z,17.37
2018-12-05T10:20:10.665Z,16.00
2018-12-05T10:22:45.218Z,15.70
2018-12-05T10:25:15.670Z,15.33
2018-12-05T10:27:51.632Z,18.27
2018-12-05T10:30:22.307Z,19.17
2018-12-05T10:32:57.594Z,17.63
2018-12-05T10:35:40.038Z,16.90
2018-12-05T10:38:11.196Z,18.00
2018-12-05T10:40:41.891Z,17.77
2018-12-05T10:43:12.688Z,16.80
2018-12-05T10:45:45.003Z,18.47
2018-12-05T10:48:32.058Z,17.97
2018-12-05T10:51:05.213Z,17.00
2018-12-05T10:53:36.193Z,16.27
2018-12-05T10:56:09.529Z,17.00
2018-12-05T11:01:43.987Z,18.23
2018-12-05T11:04:17.930Z,15.57
2018-12-05T11:06:57.348Z,15.83
2018-12-05T11:09:34.035Z,17.40
2018-12-05T11:12:15.801Z,16.40
2018-12-05T11:14:52.680Z,16.37
2018-12-05T11:17:35.614Z,16.57
2018-12-05T11:20:15.153Z,16.60
2018-12-05T11:22:56.577Z,16.50
2018-12-05T11:25:34.688Z,17.07
2018-12-05T11:28:05.362Z,17.53
2018-12-05T11:33:34.687Z,18.30
2018-12-05T11:36:07.797Z,18.13
2018-12-05T11:38:43.216Z,17.93
2018-12-05T11:41:16.942Z,16.73
2018-12-05T11:43:47.759Z,16.73
2018-12-05T11:46:18.387Z,17.87
2018-12-05T11:48:49.699Z,17.43
2018-12-05T11:51:23.361Z,19.60
2018-12-05T11:53:56.708Z,17.60
2018-12-05T11:56:31.824Z,18.93
2018-12-05T11:59:05.353Z,18.13
2018-12-05T12:01:38.827Z,18.10
2018-12-05T12:04:13.011Z,17.93
2018-12-05T12:06:45.367Z,18.57
2018-12-05T12:09:18.958Z,19.30
2018-12-05T12:14:45.378Z,19.23
2018-12-05T12:17:18.922Z,17.97
2018-12-05T12:19:47.802Z,21.17
2018-12-05T12:22:21.016Z,20.57
2018-12-05T12:24:54.494Z,20.20
2018-12-05T12:27:34.742Z,17.50
2018-12-05T12:30:17.413Z,18.63
2018-12-05T12:32:52.297Z,20.03
2018-12-05T12:35:25.784Z,21.80
2018-12-05T12:38:03.036Z,19.27
2018-12-05T12:40:36.790Z,18.53
2018-12-05T12:43:12.161Z,18.57
2018-12-05T12:45:44.141Z,17.97
2018-12-05T12:48:15.888Z,18.13
2018-12-05T12:50:53.019Z,17.73
2018-12-05T12:53:26.837Z,18.97
2018-12-05T12:55:57.308Z,19.43
2018-12-05T12:58:31.634Z,18.80
2018-12-05T13:01:09.341Z,19.07
2018-12-05T13:03:40.197Z,20.07
2018-12-05T13:06:10.817Z,19.93
2018-12-05T13:08:48.014Z,19.00
2018-12-05T13:11:23.572Z,21.00
2018-12-05T13:13:52.518Z,20.50
2018-12-05T13:16:27.673Z,20.30
2018-12-05T13:19:02.470Z,20.53
2018-12-05T13:21:36.062Z,19.50
2018-12-05T13:24:13.522Z,20.20
2018-12-05T13:26:46.894Z,19.13
2018-12-05T13:29:20.227Z,20.97
2018-12-05T13:31:51.336Z,19.40
2018-12-05T13:34:19.856Z,19.57
2018-12-05T13:36:53.519Z,20.12
2018-12-05T13:39:22.819Z,19.50
2018-12-05T13:41:56.968Z,20.40
2018-12-05T13:44:44.477Z,19.70
2018-12-05T13:47:13.814Z,19.53
2018-12-05T13:49:43.891Z,19.10
2018-12-05T13:52:15.244Z,20.23
2018-12-05T13:54:49.452Z,19.23
2018-12-05T13:57:20.496Z,22.90
2018-12-05T13:59:51.426Z,20.37
2018-12-05T14:02:24.901Z,20.07
2018-12-05T14:04:55.552Z,20.23
2018-12-05T14:10:01.466Z,19.40
2018-12-05T14:12:32.240Z,19.13
2018-12-05T14:15:07.627Z,22.27
2018-12-05T14:17:44.852Z,23.30
2018-12-05T14:20:24.954Z,23.67
2018-12-05T14:22:58.627Z,21.73
2018-12-05T14:25:34.031Z,22.27
2018-12-05T14:28:07.852Z,21.00
2018-12-05T14:33:33.645Z,20.63
2018-12-05T14:36:08.033Z,20.73
2018-12-05T14:38:41.735Z,20.63
2018-12-05T14:41:15.041Z,18.67
2018-12-05T14:43:44.248Z,20.07
2018-12-05T14:46:18.303Z,16.43
2018-12-05T14:48:47.791Z,17.03
2018-12-05T14:51:25.061Z,16.67
2018-12-05T14:53:58.797Z,16.37
2018-12-05T14:56:36.043Z,16.60
2018-12-05T14:59:07.662Z,14.63
2018-12-05T15:01:41.117Z,16.73
2018-12-05T15:04:19.244Z,15.40
2018-12-05T15:06:54.094Z,15.77
2018-12-05T15:09:29.621Z,16.30
2018-12-05T15:12:03.541Z,18.17
2018-12-05T15:27:24.606Z,19.97
2018-12-05T15:35:41.568Z,19.63
2018-12-05T15:38:15.546Z,22.13
2018-12-05T15:40:49.000Z,21.40
2018-12-05T15:46:13.247Z,21.40
2018-12-05T15:48:40.725Z,22.37
2018-12-05T15:51:11.727Z,23.27
2018-12-05T15:53:45.002Z,22.47
2018-12-05T15:56:18.290Z,23.33
2018-12-05T15:58:49.245Z,22.97
2018-12-05T16:01:23.544Z,23.10
2018-12-05T16:03:54.478Z,23.97
2018-12-05T16:06:25.155Z,24.30
2018-12-05T16:11:59.924Z,22.27
2018-12-05T16:14:30.700Z,20.67
2018-12-05T16:17:04.046Z,24.17
2018-12-05T16:19:34.861Z,25.83
2018-12-05T16:22:05.179Z,25.37
2018-12-05T16:24:40.417Z,28.30
2018-12-05T16:27:15.852Z,23.00
2018-12-05T16:29:49.595Z,30.30
2018-12-05T16:32:23.199Z,29.40
2018-12-05T16:35:03.431Z,28.57
2018-12-05T16:37:37.339Z,25.67
2018-12-05T16:40:10.666Z,24.37
2018-12-05T16:42:45.188Z,24.37
2018-12-05T16:45:18.596Z,25.03
2018-12-05T16:47:56.042Z,22.37
2018-12-05T16:50:29.641Z,23.70
2018-12-05T16:53:00.617Z,25.07
2018-12-05T16:55:29.938Z,25.13
2018-12-05T16:58:04.187Z,21.30
2018-12-05T17:00:37.757Z,22.63
2018-12-05T17:03:10.964Z,21.60
2018-12-05T17:05:41.665Z,22.03
2018-12-05T17:08:12.973Z,21.97
2018-12-05T17:10:46.350Z,21.80
2018-12-05T17:13:19.820Z,22.63
2018-12-05T17:15:48.751Z,24.17
2018-12-05T17:18:22.249Z,22.50
2018-12-05T17:21:01.651Z,24.27
2018-12-05T17:26:37.175Z,24.93
2018-12-05T17:29:07.883Z,24.30
2018-12-05T17:31:38.882Z,25.83
2018-12-05T17:34:14.402Z,25.17
2018-12-05T17:36:45.883Z,26.40
2018-12-05T17:39:15.184Z,27.60
2018-12-05T17:41:46.478Z,25.33
2018-12-05T17:44:19.713Z,25.20
2018-12-05T17:49:47.621Z,27.70
2018-12-05T17:57:24.171Z,28.10
2018-12-05T17:59:57.623Z,29.90
2018-12-05T18:02:31.007Z,29.10
2018-12-05T18:05:04.583Z,28.33
2018-12-05T18:07:35.145Z,25.23
2018-12-05T18:10:05.873Z,26.17
2018-12-05T18:12:44.158Z,26.40
2018-12-05T18:15:21.594Z,26.10
2018-12-05T18:17:55.219Z,25.83
2018-12-05T18:20:26.247Z,26.90
2018-12-05T18:22:59.589Z,28.37
2018-12-05T18:25:30.504Z,32.53
2018-12-05T18:28:05.927Z,34.13
2018-12-05T18:30:36.679Z,28.43
2018-12-05T18:33:07.424Z,40.23
2018-12-05T18:35:38.114Z,33.17
2018-12-05T18:38:06.846Z,35.53
2018-12-05T18:40:42.320Z,33.58
2018-12-05T18:43:14.178Z,47.33
2018-12-05T18:45:51.586Z,62.70
2018-12-05T18:48:35.739Z,47.87
2018-12-05T18:54:08.620Z,36.87
2018-12-05T18:59:09.852Z,38.87
2018-12-05T19:09:26.809Z,37.73
2018-12-05T19:11:53.364Z,36.53
2018-12-05T19:14:33.111Z,37.97
2018-12-05T19:17:06.958Z,33.93
2018-12-05T19:19:41.904Z,31.37
2018-12-05T19:22:13.168Z,31.23
2018-12-05T19:24:47.562Z,30.07
2018-12-05T19:27:18.361Z,27.47
2018-12-05T19:29:49.214Z,25.37
2018-12-05T19:32:22.971Z,30.40
2018-12-05T19:34:58.734Z,29.40
2018-12-05T19:37:33.158Z,28.33
2018-12-05T19:40:07.005Z,29.90
2018-12-05T19:42:36.116Z,30.43
2018-12-05T19:45:16.829Z,28.47
2018-12-05T19:47:50.120Z,30.87
2018-12-05T19:50:20.852Z,31.10
2018-12-05T19:52:54.342Z,44.47
2018-12-05T19:55:27.787Z,30.07
2018-12-05T19:57:58.628Z,38.40
2018-12-05T20:00:27.325Z,37.03
2018-12-05T20:02:57.838Z,36.88
2018-12-05T20:05:27.237Z,45.33
2018-12-05T20:08:03.075Z,36.90
2018-12-05T20:10:33.896Z,34.30
2018-12-05T20:13:07.261Z,34.87
2018-12-05T20:15:47.539Z,39.90
2018-12-05T20:18:17.141Z,44.10
2018-12-05T20:20:47.681Z,41.33
2018-12-05T20:23:21.091Z,41.77
2018-12-05T20:25:51.863Z,38.40
2018-12-05T20:28:25.104Z,33.80
2018-12-05T20:30:55.921Z,35.93
2018-12-05T20:33:27.266Z,36.00
2018-12-05T20:36:01.172Z,37.60
2018-12-05T20:41:33.114Z,35.83
2018-12-05T20:44:06.083Z,34.93
2018-12-05T20:46:39.536Z,34.43
2018-12-05T20:49:10.532Z,35.43
2018-12-05T20:51:45.053Z,36.70
2018-12-05T20:54:18.508Z,37.17
2018-12-05T20:56:52.781Z,37.17
2018-12-05T20:59:23.651Z,33.20
2018-12-05T21:01:57.368Z,34.23
2018-12-05T21:04:30.749Z,34.33
2018-12-05T21:07:01.513Z,37.90
2018-12-05T21:09:32.085Z,35.70
2018-12-05T21:12:07.031Z,36.73
2018-12-05T21:14:37.896Z,37.83
2018-12-05T21:17:08.385Z,37.60
2018-12-05T21:19:39.705Z,37.83
2018-12-05T21:22:08.438Z,38.37
2018-12-05T21:24:41.684Z,37.53
2018-12-05T21:27:10.483Z,37.37
2018-12-05T21:29:41.208Z,41.50
2018-12-05T21:32:14.659Z,42.33
2018-12-05T21:34:45.903Z,40.10
2018-12-05T21:37:14.971Z,40.63
2018-12-05T21:39:48.829Z,40.23
2018-12-05T21:42:20.680Z,39.30
2018-12-05T21:45:00.514Z,40.57
2018-12-05T21:47:34.437Z,39.17
2018-12-05T21:50:08.048Z,39.87
2018-12-05T21:52:41.679Z,39.03
2018-12-05T21:55:15.627Z,41.33
2018-12-05T21:57:44.821Z,42.63
2018-12-05T22:00:19.979Z,44.07
2018-12-05T22:02:50.808Z,42.77
2018-12-05T22:05:24.026Z,44.63
2018-12-05T22:07:57.250Z,41.93
2018-12-05T22:10:27.110Z,41.63
2018-12-05T22:13:00.268Z,38.83
2018-12-05T22:15:31.053Z,39.63
2018-12-05T22:18:04.449Z,37.67
2018-12-05T22:20:39.912Z,36.83
2018-12-05T22:23:14.137Z,36.73
2018-12-05T22:28:45.065Z,36.77
2018-12-05T22:31:20.534Z,32.67
2018-12-05T22:33:51.580Z,30.47
2018-12-05T22:39:17.405Z,33.40
2018-12-05T22:41:50.732Z,32.80
2018-12-05T22:44:25.390Z,31.10
2018-12-05T22:46:56.357Z,30.63
2018-12-05T22:49:33.797Z,31.30
2018-12-05T22:52:01.326Z,32.40
2018-12-05T22:54:37.621Z,31.93
2018-12-05T22:57:11.960Z,20.27
2018-12-05T22:59:46.306Z,19.47
2018-12-05T23:02:20.432Z,28.37
2018-12-05T23:04:54.075Z,23.87
2018-12-05T23:07:22.851Z,24.80
2018-12-05T23:09:56.992Z,21.42
2018-12-05T23:12:27.964Z,25.80
2018-12-05T23:15:06.141Z,25.37
2018-12-05T23:17:39.377Z,26.27
2018-12-05T23:20:13.475Z,28.10
2018-12-05T23:22:44.950Z,27.33
2018-12-05T23:25:18.616Z,25.70
2018-12-05T23:27:49.128Z,27.10
2018-12-05T23:30:22.693Z,27.23
2018-12-05T23:32:53.300Z,26.70
2018-12-05T23:35:24.062Z,29.87
2018-12-05T23:37:51.515Z,29.40
2018-12-05T23:40:22.864Z,29.20
2018-12-05T23:42:56.326Z,30.53
2018-12-05T23:46:09.754Z,30.37
2018-12-05T23:48:40.343Z,31.00
2018-12-05T23:51:15.585Z,31.27
2018-12-05T23:53:46.760Z,32.87
2018-12-05T23:56:27.177Z,30.07
2018-12-05T23:59:00.633Z,30.83
